createdAt,value
2019-01-31T00:04:36.654Z,93690.47
2019-01-31T00:07:15.086Z,93690.97
2019-01-31T00:27:25.586Z,93727.60
2019-01-31T00:30:18.341Z,93734.16
2019-01-31T00:33:00.611Z,93735.75
2019-01-31T00:35:40.190Z,93731.38
2019-01-31T00:41:29.683Z,93732.67
2019-01-31T00:44:13.727Z,93727.48
2019-01-31T00:46:57.419Z,93737.98
2019-01-31T00:49:51.992Z,93729.98
2019-01-31T00:53:39.603Z,93724.84
2019-01-31T00:57:33.867Z,93735.20
2019-01-31T01:00:13.282Z,93742.61
2019-01-31T01:02:56.840Z,93738.47
2019-01-31T01:05:55.772Z,93741.73
2019-01-31T01:26:01.288Z,93729.66
2019-01-31T01:30:47.129Z,93724.01
2019-01-31T01:33:34.975Z,93717.73
2019-01-31T01:36:21.791Z,93723.70
2019-01-31T01:41:11.012Z,93712.50
2019-01-31T01:43:49.326Z,93719.02
2019-01-31T01:46:59.260Z,93715.26
2019-01-31T01:50:08.772Z,93709.84
2019-01-31T02:10:45.383Z,93731.62
2019-01-31T02:13:29.643Z,93732.00
2019-01-31T02:16:15.600Z,93731.92
2019-01-31T02:18:52.953Z,93736.90
2019-01-31T02:28:38.059Z,93731.25
2019-01-31T02:31:18.586Z,93734.63
2019-01-31T02:34:15.880Z,93734.66
2019-01-31T02:38:02.564Z,93733.55
2019-01-31T02:42:46.855Z,93741.91
2019-01-31T02:45:30.924Z,93739.19
2019-01-31T02:48:09.353Z,93737.91
2019-01-31T02:50:50.332Z,93733.05
2019-01-31T02:53:34.521Z,93729.73
2019-01-31T02:56:12.441Z,93727.95
2019-01-31T02:58:47.630Z,93719.75
2019-01-31T03:02:11.467Z,93722.16
2019-01-31T03:06:59.259Z,93722.27
2019-01-31T03:10:20.283Z,93720.00
2019-01-31T03:13:18.538Z,93715.59
2019-01-31T03:16:12.511Z,93714.91
2019-01-31T03:18:49.125Z,93715.30
2019-01-31T03:41:25.308Z,93718.80
2019-01-31T03:44:05.769Z,93733.23
2019-01-31T03:47:48.043Z,93725.16
2019-01-31T03:50:35.448Z,93734.70
2019-01-31T03:53:20.609Z,93729.66
2019-01-31T03:56:07.513Z,93729.36
2019-01-31T03:58:55.560Z,93721.52
2019-01-31T04:02:03.951Z,93724.05
2019-01-31T04:04:38.295Z,93717.72
2019-01-31T04:07:07.812Z,93713.19
2019-01-31T04:09:37.327Z,93712.63
2019-01-31T04:12:06.980Z,93703.77
2019-01-31T04:14:36.648Z,93701.98
2019-01-31T04:17:06.376Z,93703.61
2019-01-31T04:19:36.240Z,93702.85
2019-01-31T04:22:05.992Z,93700.69
2019-01-31T04:24:35.585Z,93705.85
2019-01-31T04:27:05.389Z,93707.23
2019-01-31T04:29:35.175Z,93705.20
2019-01-31T04:32:04.959Z,93705.20
2019-01-31T04:34:37.765Z,93697.16
2019-01-31T04:37:07.103Z,93707.14
2019-01-31T04:39:36.427Z,93710.72
2019-01-31T04:42:06.022Z,93713.30
2019-01-31T04:44:35.524Z,93713.80
2019-01-31T04:47:05.522Z,93708.88
2019-01-31T04:49:35.173Z,93700.71
2019-01-31T04:52:04.694Z,93699.00
2019-01-31T04:54:34.391Z,93696.71
2019-01-31T04:57:03.942Z,93695.50
2019-01-31T04:59:33.485Z,93702.22
2019-01-31T05:02:03.015Z,93702.77
2019-01-31T05:04:32.594Z,93695.13
2019-01-31T05:07:02.305Z,93702.59
2019-01-31T05:09:31.690Z,93703.63
2019-01-31T05:29:23.025Z,93727.41
2019-01-31T05:31:52.685Z,93729.72
2019-01-31T05:34:22.185Z,93730.44
2019-01-31T05:36:51.952Z,93732.07
2019-01-31T05:39:21.781Z,93734.78
2019-01-31T05:41:51.382Z,93741.42
2019-01-31T05:44:20.799Z,93740.59
2019-01-31T05:46:50.327Z,93738.91
2019-01-31T05:49:20.164Z,93732.52
2019-01-31T05:51:49.725Z,93736.56
2019-01-31T05:54:19.351Z,93741.19
2019-01-31T05:56:49.233Z,93745.55
2019-01-31T05:59:18.764Z,93745.25
2019-01-31T06:01:48.292Z,93744.33
2019-01-31T06:04:17.968Z,93753.19
2019-01-31T06:06:47.573Z,93752.52
2019-01-31T06:09:17.317Z,93752.70
2019-01-31T06:11:46.989Z,93756.63
2019-01-31T06:14:16.512Z,93754.47
2019-01-31T06:16:46.285Z,93747.42
2019-01-31T06:19:15.975Z,93745.88
2019-01-31T06:21:45.421Z,93745.31
2019-01-31T06:24:15.190Z,93744.58
2019-01-31T06:26:44.860Z,93748.45
2019-01-31T06:29:14.610Z,93751.56
2019-01-31T06:31:44.216Z,93753.39
2019-01-31T06:34:13.830Z,93768.00
2019-01-31T06:36:43.604Z,93769.30
2019-01-31T06:39:13.032Z,93774.55
2019-01-31T06:41:42.491Z,93778.30
2019-01-31T06:44:12.251Z,93781.01
2019-01-31T06:46:41.959Z,93782.94
2019-01-31T06:49:11.549Z,93779.23
2019-01-31T06:51:41.122Z,93783.27
2019-01-31T06:54:10.524Z,93790.02
2019-01-31T06:56:39.923Z,93782.65
2019-01-31T06:59:09.659Z,93771.94
2019-01-31T07:01:39.574Z,93776.47
2019-01-31T07:04:11.040Z,93776.92
2019-01-31T07:06:38.807Z,93785.67
2019-01-31T07:09:10.856Z,93772.16
2019-01-31T07:11:40.491Z,93772.69
2019-01-31T07:14:10.187Z,93789.69
2019-01-31T07:16:39.771Z,93794.94
2019-01-31T07:19:09.287Z,93800.50
2019-01-31T07:21:38.808Z,93810.23
2019-01-31T07:24:08.841Z,93814.30
2019-01-31T07:26:41.390Z,93798.37
2019-01-31T07:29:08.243Z,93801.01
2019-01-31T07:31:37.932Z,93798.80
2019-01-31T07:34:07.598Z,93784.18
2019-01-31T07:36:37.312Z,93786.09
2019-01-31T07:39:08.551Z,93792.30
2019-01-31T07:41:41.347Z,93795.14
2019-01-31T07:44:08.340Z,93791.75
2019-01-31T08:04:02.567Z,93772.97
2019-01-31T08:06:30.455Z,93772.19
2019-01-31T08:09:00.028Z,93769.47
2019-01-31T08:11:29.771Z,93762.06
2019-01-31T08:13:59.563Z,93762.64
2019-01-31T08:16:29.279Z,93771.81
2019-01-31T08:18:59.050Z,93764.44
2019-01-31T08:21:28.829Z,93771.87
2019-01-31T08:23:58.558Z,93772.05
2019-01-31T08:43:51.457Z,93773.95
2019-01-31T08:46:20.968Z,93776.86
2019-01-31T08:48:50.595Z,93766.09
2019-01-31T08:51:20.007Z,93772.70
2019-01-31T08:53:49.715Z,93776.17
2019-01-31T08:56:19.497Z,93771.75
2019-01-31T08:58:49.339Z,93769.66
2019-01-31T09:01:18.906Z,93767.55
2019-01-31T09:03:48.552Z,93771.19
2019-01-31T09:06:18.389Z,93764.72
2019-01-31T09:08:48.039Z,93762.33
2019-01-31T09:11:17.620Z,93763.05
2019-01-31T09:13:47.277Z,93762.42
2019-01-31T09:16:17.044Z,93757.48
2019-01-31T09:18:52.923Z,93763.41
2019-01-31T09:21:37.038Z,93761.58
2019-01-31T09:26:35.101Z,93764.77
2019-01-31T09:29:25.386Z,93763.64
2019-01-31T09:32:23.405Z,93775.77
2019-01-31T09:35:17.999Z,93761.78
2019-01-31T09:37:58.569Z,93757.92
2019-01-31T09:40:42.320Z,93759.14
2019-01-31T09:43:21.639Z,93750.59
2019-01-31T09:46:04.327Z,93753.34
2019-01-31T09:48:46.305Z,93761.86
2019-01-31T09:51:28.528Z,93764.99
2019-01-31T09:56:14.255Z,93761.31
2019-01-31T09:58:59.459Z,93756.64
2019-01-31T10:01:43.730Z,93758.91
2019-01-31T10:04:53.080Z,93749.86
2019-01-31T10:07:32.195Z,93747.27
2019-01-31T10:10:48.436Z,93735.27
2019-01-31T10:13:34.791Z,93733.96
2019-01-31T10:16:13.434Z,93732.16
2019-01-31T10:19:27.230Z,93734.23
2019-01-31T10:22:08.426Z,93733.20
2019-01-31T10:25:26.012Z,93724.33
2019-01-31T10:30:08.715Z,93726.66
2019-01-31T10:35:51.934Z,93732.14
2019-01-31T10:41:36.658Z,93713.77
2019-01-31T10:44:47.288Z,93721.58
2019-01-31T10:47:33.155Z,93716.42
2019-01-31T10:50:13.947Z,93714.15
2019-01-31T10:52:52.125Z,93708.95
2019-01-31T10:57:39.674Z,93712.06
2019-01-31T11:01:18.024Z,93717.30
2019-01-31T11:04:05.112Z,93714.45
2019-01-31T11:06:52.604Z,93715.75
2019-01-31T11:09:38.308Z,93718.08
2019-01-31T11:12:32.113Z,93714.18
2019-01-31T11:17:18.939Z,93721.22
2019-01-31T11:19:59.491Z,93725.92
2019-01-31T11:22:37.847Z,93719.41
2019-01-31T11:25:34.499Z,93718.11
2019-01-31T11:30:20.789Z,93717.32
2019-01-31T11:34:06.995Z,93716.53
2019-01-31T11:37:00.664Z,93626.14
2019-01-31T11:39:57.922Z,93717.28
2019-01-31T11:42:41.217Z,93712.31
2019-01-31T11:47:31.027Z,93709.98
2019-01-31T11:51:13.153Z,93715.45
2019-01-31T11:54:57.265Z,93718.58
2019-01-31T11:57:45.721Z,93705.60
2019-01-31T12:00:16.305Z,93709.50
2019-01-31T12:02:54.716Z,93713.66
2019-01-31T12:05:15.862Z,93708.70
2019-01-31T12:07:45.625Z,93705.59
2019-01-31T12:10:15.442Z,93706.63
2019-01-31T12:12:45.184Z,93703.52
2019-01-31T12:15:14.987Z,93699.89
2019-01-31T12:17:44.695Z,93699.37
2019-01-31T12:20:14.489Z,93702.48
2019-01-31T12:22:44.554Z,93706.64
2019-01-31T12:25:14.335Z,93703.52
2019-01-31T12:27:44.007Z,93703.51
2019-01-31T12:30:18.157Z,93701.16
2019-01-31T12:32:47.935Z,93698.31
2019-01-31T12:35:17.480Z,93699.36
2019-01-31T12:37:46.808Z,93696.75
2019-01-31T12:40:17.457Z,93697.28
2019-01-31T12:42:47.179Z,93696.22
2019-01-31T12:45:18.379Z,93700.92
2019-01-31T12:47:48.179Z,93702.47
2019-01-31T13:07:39.647Z,93692.33
2019-01-31T13:10:09.360Z,93700.38
2019-01-31T13:12:48.367Z,93697.03
2019-01-31T13:15:09.129Z,93703.00
2019-01-31T13:17:38.764Z,93704.32
2019-01-31T13:20:13.111Z,93702.75
2019-01-31T13:22:42.832Z,93701.19
2019-01-31T13:25:12.677Z,93699.86
2019-01-31T13:27:42.560Z,93704.05
2019-01-31T13:30:14.762Z,93705.34
2019-01-31T13:32:44.847Z,93706.12
2019-01-31T13:35:14.573Z,93716.02
2019-01-31T13:37:44.283Z,93713.92
2019-01-31T13:40:17.335Z,93714.18
2019-01-31T13:42:47.106Z,93710.77
2019-01-31T13:45:19.041Z,93717.03
2019-01-31T13:47:48.758Z,93715.73
2019-01-31T13:50:19.554Z,93718.33
2019-01-31T13:52:49.348Z,93714.42
2019-01-31T13:55:24.334Z,93717.55
2019-01-31T13:57:54.107Z,93719.38
2019-01-31T14:00:23.976Z,93725.36
2019-01-31T14:02:53.636Z,93722.23
2019-01-31T14:05:23.436Z,93724.31
2019-01-31T14:07:53.311Z,93721.42
2019-01-31T14:10:24.194Z,93724.55
2019-01-31T14:12:53.998Z,93723.00
2019-01-31T14:15:32.869Z,93730.02
2019-01-31T14:17:56.015Z,93724.55
2019-01-31T14:20:27.210Z,93730.81
2019-01-31T14:22:56.829Z,93730.83
2019-01-31T14:25:26.491Z,93730.02
2019-01-31T14:27:56.120Z,93733.70
2019-01-31T14:30:31.394Z,93734.20
2019-01-31T14:33:01.483Z,93732.38
2019-01-31T14:35:31.175Z,93730.81
2019-01-31T14:38:00.853Z,93734.96
2019-01-31T14:40:30.606Z,93733.13
2019-01-31T14:43:00.263Z,93743.55
2019-01-31T14:45:30.280Z,93740.93
2019-01-31T14:47:59.539Z,93751.33
2019-01-31T14:50:31.102Z,93756.25
2019-01-31T14:53:00.893Z,93756.75
2019-01-31T14:55:30.491Z,93767.70
2019-01-31T14:58:00.266Z,93768.51
2019-01-31T15:00:31.331Z,93765.89
2019-01-31T15:03:01.061Z,93769.23
2019-01-31T15:05:30.621Z,93766.66
2019-01-31T15:08:00.410Z,93769.48
2019-01-31T15:10:30.242Z,93776.27
2019-01-31T15:30:24.609Z,93848.59
2019-01-31T15:32:54.300Z,93868.23
2019-01-31T15:35:23.864Z,93880.99
2019-01-31T15:43:56.740Z,93885.42
2019-01-31T15:46:26.427Z,93900.12
2019-01-31T15:48:56.125Z,93906.41
2019-01-31T15:51:26.063Z,93923.17
2019-01-31T15:53:55.644Z,93927.10
2019-01-31T15:56:25.657Z,93932.09
2019-01-31T15:58:55.402Z,93934.58
2019-01-31T16:01:24.980Z,93939.34
2019-01-31T16:03:54.699Z,93948.24
2019-01-31T16:06:24.268Z,93953.64
2019-01-31T16:08:53.705Z,93958.67
2019-01-31T16:11:23.282Z,93954.14
2019-01-31T16:13:53.049Z,93962.53
2019-01-31T16:16:22.736Z,93963.66
2019-01-31T16:18:52.051Z,93957.59
2019-01-31T16:21:28.488Z,93959.58
2019-01-31T16:23:58.218Z,93968.03
2019-01-31T16:26:27.914Z,93972.73
2019-01-31T16:28:57.560Z,93972.63
2019-01-31T16:31:27.276Z,93972.08
2019-01-31T16:33:57.063Z,93979.19
2019-01-31T16:36:26.956Z,93982.80
2019-01-31T16:38:56.730Z,93987.77
2019-01-31T16:41:26.331Z,93991.88
2019-01-31T16:43:55.833Z,93993.31
2019-01-31T16:46:25.550Z,93999.60
2019-01-31T16:48:55.235Z,93992.70
2019-01-31T16:51:25.470Z,94000.66
2019-01-31T16:53:55.160Z,94002.55
2019-01-31T16:56:24.756Z,94002.11
2019-01-31T16:58:54.265Z,94004.63
2019-01-31T17:01:23.796Z,94014.00
2019-01-31T17:03:53.408Z,94007.05
2019-01-31T17:06:23.112Z,94013.69
2019-01-31T17:08:52.808Z,94013.22
2019-01-31T17:11:22.501Z,94023.86
2019-01-31T17:13:52.219Z,94024.13
2019-01-31T17:16:22.139Z,94031.98
2019-01-31T17:18:54.821Z,94031.72
2019-01-31T17:21:21.548Z,94030.98
2019-01-31T17:23:51.225Z,94039.86
2019-01-31T17:26:20.711Z,94037.12
2019-01-31T17:28:56.720Z,94036.95
2019-01-31T17:31:26.254Z,94032.98
2019-01-31T17:33:55.847Z,94035.07
2019-01-31T17:36:25.375Z,94039.30
2019-01-31T17:38:55.247Z,94043.92
2019-01-31T17:41:24.864Z,94048.59
2019-01-31T17:43:54.480Z,94048.33
2019-01-31T17:46:23.996Z,94053.01
2019-01-31T17:48:53.547Z,94061.54
2019-01-31T17:51:23.323Z,94066.87
2019-01-31T17:53:52.847Z,94068.95
2019-01-31T17:56:22.385Z,94071.48
2019-01-31T17:58:51.726Z,94068.86
2019-01-31T18:01:21.570Z,94077.31
2019-01-31T18:03:51.140Z,94077.67
2019-01-31T18:06:20.611Z,94090.19
2019-01-31T18:08:50.407Z,94081.66
2019-01-31T18:11:19.816Z,94102.20
2019-01-31T18:13:49.323Z,94096.37
2019-01-31T18:16:18.925Z,94099.32
2019-01-31T18:18:48.531Z,94103.11
2019-01-31T18:21:18.299Z,94110.70
2019-01-31T18:23:48.004Z,94110.80
2019-01-31T18:26:17.716Z,94116.53
2019-01-31T18:28:47.264Z,94115.97
2019-01-31T18:31:16.992Z,94122.19
2019-01-31T18:33:46.411Z,94122.19
2019-01-31T18:36:15.916Z,94121.06
2019-01-31T18:38:45.484Z,94120.59
2019-01-31T18:41:15.012Z,94131.13
2019-01-31T18:43:44.491Z,94137.89
2019-01-31T18:46:14.175Z,94139.13
2019-01-31T18:48:43.675Z,94141.33
2019-01-31T18:51:16.074Z,94137.04
2019-01-31T18:53:43.037Z,94146.89
2019-01-31T18:56:12.785Z,94147.39
2019-01-31T18:58:42.486Z,94158.38
2019-01-31T19:01:12.283Z,94150.76
2019-01-31T19:03:41.868Z,94158.31
2019-01-31T19:06:12.167Z,94167.05
2019-01-31T19:08:41.687Z,94164.11
2019-01-31T19:11:11.390Z,94166.86
2019-01-31T19:13:40.973Z,94168.30
2019-01-31T19:16:10.755Z,94171.64
2019-01-31T19:18:40.367Z,94171.05
2019-01-31T19:21:10.055Z,94171.34
2019-01-31T19:23:39.748Z,94175.78
2019-01-31T19:26:09.446Z,94176.79
2019-01-31T19:28:39.145Z,94183.41
2019-01-31T19:31:08.924Z,94184.81
2019-01-31T19:33:38.539Z,94185.89
2019-01-31T19:36:08.116Z,94187.03
2019-01-31T19:38:37.800Z,94190.16
2019-01-31T19:41:07.401Z,94191.22
2019-01-31T19:43:39.972Z,94195.64
2019-01-31T19:46:16.168Z,94206.33
2019-01-31T19:48:39.437Z,94215.15
2019-01-31T19:51:09.532Z,94215.61
2019-01-31T19:53:39.335Z,94221.84
2019-01-31T19:56:09.099Z,94231.57
2019-01-31T19:58:38.697Z,94235.29
2019-01-31T20:01:08.464Z,94240.53
2019-01-31T20:03:38.366Z,94238.75
2019-01-31T20:06:08.300Z,94241.20
2019-01-31T20:08:38.414Z,94242.28
2019-01-31T20:11:08.272Z,94238.40
2019-01-31T20:13:37.869Z,94235.59
2019-01-31T20:16:07.498Z,94241.33
2019-01-31T20:18:36.982Z,94253.11
2019-01-31T20:21:06.656Z,94252.05
2019-01-31T20:23:36.412Z,94265.04
2019-01-31T20:26:06.153Z,94260.39
2019-01-31T20:28:35.783Z,94268.94
2019-01-31T20:31:05.428Z,94277.63
2019-01-31T20:33:35.307Z,94281.43
2019-01-31T20:36:05.065Z,94286.73
2019-01-31T20:38:34.563Z,94296.66
2019-01-31T20:41:04.008Z,94293.56
2019-01-31T20:43:33.644Z,94292.35
2019-01-31T20:46:03.352Z,94298.02
2019-01-31T20:48:33.303Z,94295.08
2019-01-31T20:51:02.936Z,94308.85
2019-01-31T20:53:32.655Z,94308.00
2019-01-31T20:56:02.192Z,94320.20
2019-01-31T20:58:31.718Z,94317.76
2019-01-31T21:01:01.475Z,94321.14
2019-01-31T21:03:31.373Z,94324.66
2019-01-31T21:06:00.994Z,94327.73
2019-01-31T21:08:30.642Z,94331.69
2019-01-31T21:11:00.288Z,94336.86
2019-01-31T21:13:29.868Z,94334.98
2019-01-31T21:15:59.613Z,94341.14
2019-01-31T21:18:29.319Z,94346.75
2019-01-31T21:20:58.955Z,94352.77
2019-01-31T21:23:28.719Z,94356.50
2019-01-31T21:25:58.374Z,94368.56
2019-01-31T21:28:27.969Z,94374.30
2019-01-31T21:30:57.695Z,94384.77
2019-01-31T21:33:27.511Z,94385.26
2019-01-31T21:35:57.182Z,94385.75
2019-01-31T21:38:26.670Z,94386.20
2019-01-31T21:40:56.370Z,94392.73
2019-01-31T21:43:25.979Z,94392.78
2019-01-31T21:45:55.664Z,94396.82
2019-01-31T21:48:25.163Z,94395.77
2019-01-31T21:50:54.619Z,94404.39
2019-01-31T21:53:24.094Z,94402.95
2019-01-31T21:55:54.213Z,94413.39
2019-01-31T21:58:23.668Z,94411.30
2019-01-31T22:00:53.186Z,94420.79
2019-01-31T22:03:22.783Z,94428.66
2019-01-31T22:05:52.998Z,94430.53
2019-01-31T22:08:22.685Z,94432.41
2019-01-31T22:10:52.319Z,94434.37
2019-01-31T22:13:22.086Z,94436.27
2019-01-31T22:15:51.814Z,94442.97
2019-01-31T22:18:21.440Z,94444.75
2019-01-31T22:20:50.845Z,94443.67
2019-01-31T22:23:20.491Z,94448.56
2019-01-31T22:25:50.159Z,94451.05
2019-01-31T22:28:19.783Z,94458.97
2019-01-31T22:30:49.357Z,94457.30
2019-01-31T22:33:18.876Z,94459.06
2019-01-31T22:35:48.464Z,94464.29
2019-01-31T22:38:18.095Z,94471.44
2019-01-31T22:40:47.699Z,94463.33
2019-01-31T22:43:17.604Z,94467.77
2019-01-31T22:45:47.149Z,94465.58
2019-01-31T22:48:16.818Z,94460.75
2019-01-31T22:50:46.397Z,94467.45
2019-01-31T22:53:15.989Z,94472.56
2019-01-31T22:55:45.680Z,94475.34
2019-01-31T22:58:15.353Z,94478.86
2019-01-31T23:00:55.633Z,94482.63
2019-01-31T23:03:25.525Z,94481.44
2019-01-31T23:05:55.198Z,94484.50
2019-01-31T23:08:24.832Z,94478.93
2019-01-31T23:10:54.601Z,94487.73
2019-01-31T23:13:24.539Z,94483.77
2019-01-31T23:15:54.260Z,94491.70
2019-01-31T23:18:23.999Z,94488.61
2019-01-31T23:20:53.447Z,94484.08
2019-01-31T23:23:23.052Z,94482.20
2019-01-31T23:25:52.621Z,94491.22
2019-01-31T23:28:22.111Z,94494.46
2019-01-31T23:30:51.591Z,94489.79
2019-01-31T23:33:21.156Z,94489.54
2019-01-31T23:35:50.633Z,94490.59
2019-01-31T23:38:20.231Z,94505.47
2019-01-31T23:40:49.758Z,94502.98
2019-01-31T23:43:19.638Z,94507.92
2019-01-31T23:45:49.330Z,94499.71
2019-01-31T23:48:19.043Z,94507.90
2019-01-31T23:50:48.468Z,94502.75
2019-01-31T23:53:18.159Z,94513.05
2019-01-31T23:55:47.840Z,94514.66
2019-01-31T23:58:17.527Z,94519.03
